createdAt,value
2022-09-18T00:00:46.228Z,2642.35742
2022-09-18T00:15:48.504Z,1949.2959
2022-09-18T00:30:50.771Z,1500.50232
2022-09-18T00:45:52.980Z,1382.24561
2022-09-18T01:00:55.312Z,1062.37109
2022-09-18T01:15:57.695Z,755.09772
2022-09-18T01:31:00.193Z,414.86755
2022-09-18T01:46:02.416Z,142.48956
2022-09-18T02:01:04.638Z,31.98745
2022-09-18T02:16:07.050Z,4.84658
2022-09-18T02:31:09.358Z,0.96932
2022-09-18T02:46:11.729Z,0
2022-09-18T03:01:14.076Z,0
2022-09-18T03:16:16.545Z,0
2022-09-18T03:31:19.039Z,0
2022-09-18T03:46:21.376Z,0
2022-09-18T04:01:23.634Z,0
2022-09-18T04:16:25.966Z,0
2022-09-18T04:31:28.426Z,0
2022-09-18T04:46:30.758Z,0
2022-09-18T05:01:33.102Z,0
2022-09-18T05:16:35.646Z,0
2022-09-18T05:31:38.008Z,0
2022-09-18T05:46:40.356Z,0
2022-09-18T06:01:46.965Z,0
2022-09-18T06:16:49.695Z,0
2022-09-18T06:31:52.002Z,0
2022-09-18T06:46:54.363Z,0
2022-09-18T07:01:56.711Z,0
2022-09-18T07:16:59.101Z,0
2022-09-18T07:32:01.811Z,0
2022-09-18T07:47:04.359Z,0
2022-09-18T08:02:06.756Z,0
2022-09-18T08:17:09.136Z,0
2022-09-18T08:32:11.358Z,0
2022-09-18T08:47:13.564Z,0
2022-09-18T09:02:15.801Z,0
2022-09-18T09:17:18.111Z,0
2022-09-18T09:32:20.344Z,0
2022-09-18T09:47:22.599Z,0
2022-09-18T10:02:25.081Z,0
2022-09-18T10:17:27.393Z,0
2022-09-18T10:32:29.608Z,0
2022-09-18T10:47:31.878Z,0
2022-09-18T11:02:34.137Z,0
2022-09-18T11:17:36.466Z,0
2022-09-18T11:32:39.020Z,0
2022-09-18T11:47:41.249Z,0
2022-09-18T12:02:43.640Z,0
2022-09-18T12:17:44.713Z,0
2022-09-18T12:32:46.936Z,0
2022-09-18T12:47:49.804Z,0
2022-09-18T13:02:52.014Z,0.96932
2022-09-18T13:17:55.142Z,7.75453
2022-09-18T13:32:57.413Z,41.68062
2022-09-18T13:47:59.577Z,156.06
2022-09-18T14:03:01.970Z,372.21762
2022-09-18T14:18:04.295Z,630.05585
2022-09-18T14:33:06.547Z,1062.37109
2022-09-18T14:48:11.745Z,3759.97949
2022-09-18T15:03:16.422Z,2659.80518
2022-09-18T15:18:18.792Z,2525.07007
2022-09-18T15:33:21.097Z,2328.29883
2022-09-18T15:48:23.332Z,2438.80078
2022-09-18T16:03:25.575Z,3298.58472
2022-09-18T16:18:27.852Z,4521.8623
2022-09-18T16:33:30.323Z,4457.8877
2022-09-18T16:48:32.555Z,3336.38818
2022-09-18T17:03:34.784Z,2903.10352
2022-09-18T17:18:37.073Z,3220.07007
2022-09-18T17:33:39.275Z,4371.61865
2022-09-18T17:48:41.590Z,5279.86816
2022-09-18T18:03:43.895Z,4481.15137
2022-09-18T18:18:46.152Z,5829.4707
2022-09-18T18:33:48.394Z,3761.91821
2022-09-18T18:48:50.637Z,4575.1748
2022-09-18T19:03:52.950Z,4296.98096
2022-09-18T19:18:55.380Z,5386.49316
2022-09-18T19:33:57.657Z,5641.42334
2022-09-18T19:48:59.891Z,5333.18066
2022-09-18T20:04:02.163Z,5076.31152
2022-09-18T20:19:04.553Z,5021.06055
2022-09-18T20:34:06.946Z,4545.12598
2022-09-18T20:49:09.295Z,4310.55127
2022-09-18T21:04:11.534Z,3801.66016
2022-09-18T21:19:13.740Z,3897.62256
2022-09-18T21:34:16.050Z,4558.69678
2022-09-18T21:49:18.242Z,6491.51416
2022-09-18T22:04:20.483Z,5962.26709
2022-09-18T22:19:22.828Z,6090.2168
2022-09-18T22:34:25.263Z,5267.26709
2022-09-18T22:49:27.528Z,5511.53467
2022-09-18T23:04:29.848Z,6930.61475
2022-09-18T23:19:32.138Z,6342.23926
2022-09-18T23:34:34.408Z,7799.12256
2022-09-18T23:49:36.599Z,8023.03467
